CMB837 Details

Departure: Joint Base McGuire Dix Lakehurst (KWRI)
Arrival: Ramstein Air Force Base (ETAR)
Route: PTPL5 SHLEP HTO WHALE N135A PORTI NATW ATSUR GAPLI UN20 SAM UM140 DVR UL9 KONAN UL607 SPI UT180 PESOV T180 NIVNU T847 SIPVU T847 OLIVI Q762 XIDOD
Notes: USTRANSCOM CONTRACT FLIGHT


Current Weather Information
KWRI 251056Z AUTO 00000KT 5SM HZ CLR 13/11 A3021 RMK AO2 SLP229 T01330105 $
ETAR 251056Z AUTO 36008KT 9999 BKN120 BKN190 20/08 A3001 RMK AO2 SLP163 T01970084 $